createdAt,value
2023-04-11T00:01:08.854Z,3.67
2023-04-11T00:03:38.481Z,4.63
2023-04-11T00:06:05.682Z,4.53
2023-04-11T00:08:32.417Z,4.20
2023-04-11T00:10:59.182Z,4.00
2023-04-11T00:13:26.651Z,4.40
2023-04-11T00:15:56.425Z,4.78
2023-04-11T00:18:25.501Z,3.65
2023-04-11T00:20:52.213Z,4.28
2023-04-11T00:23:19.156Z,4.13
2023-04-11T00:25:45.976Z,3.70
2023-04-11T00:28:12.871Z,4.40
2023-04-11T00:30:39.736Z,4.78
2023-04-11T00:33:06.699Z,4.63
2023-04-11T00:35:37.883Z,4.13
2023-04-11T00:38:05.556Z,4.80
2023-04-11T00:40:32.626Z,4.30
2023-04-11T00:42:59.450Z,4.55
2023-04-11T00:45:26.796Z,4.13
2023-04-11T00:47:54.271Z,4.93
2023-04-11T00:50:22.318Z,4.10
2023-04-11T00:52:50.977Z,4.00
2023-04-11T00:55:17.947Z,3.97
2023-04-11T00:57:45.656Z,4.20
2023-04-11T01:00:13.475Z,4.22
2023-04-11T01:02:43.577Z,4.40
2023-04-11T01:05:11.405Z,4.63
2023-04-11T01:07:40.080Z,4.60
2023-04-11T01:10:08.013Z,4.80
2023-04-11T01:12:35.737Z,4.78
2023-04-11T01:15:03.213Z,4.70
2023-04-11T01:17:30.045Z,4.47
2023-04-11T01:19:57.817Z,4.78
2023-04-11T01:22:25.766Z,4.72
2023-04-11T01:24:52.518Z,4.72
2023-04-11T01:27:20.071Z,4.88
2023-04-11T01:29:46.765Z,4.80
2023-04-11T01:32:13.469Z,4.20
2023-04-11T01:34:42.264Z,4.90
2023-04-11T01:37:09.506Z,3.95
2023-04-11T01:39:36.398Z,4.40
2023-04-11T01:42:04.545Z,4.75
2023-04-11T01:44:33.302Z,4.38
2023-04-11T01:47:01.061Z,4.53
2023-04-11T01:49:27.924Z,4.55
2023-04-11T01:51:54.790Z,4.72
2023-04-11T01:54:21.607Z,4.97
2023-04-11T01:56:48.513Z,4.53
2023-04-11T01:59:15.572Z,4.75
2023-04-11T02:01:45.507Z,5.18
2023-04-11T02:04:12.613Z,4.82
2023-04-11T02:06:39.556Z,5.55
2023-04-11T02:09:06.314Z,4.50
2023-04-11T02:11:33.054Z,4.82
2023-04-11T02:13:59.968Z,4.70
2023-04-11T02:16:32.169Z,5.43
2023-04-11T02:21:25.620Z,4.72
2023-04-11T02:23:52.378Z,5.30
2023-04-11T02:26:19.137Z,4.93
2023-04-11T02:28:45.949Z,3.92
2023-04-11T02:31:12.768Z,4.72
2023-04-11T02:33:39.549Z,4.30
2023-04-11T02:36:06.702Z,4.82
2023-04-11T02:38:33.437Z,4.82
2023-04-11T02:41:00.598Z,4.50
2023-04-11T02:43:27.368Z,4.95
2023-04-11T02:46:09.564Z,4.70
2023-04-11T02:48:38.797Z,4.80
2023-04-11T02:51:05.965Z,4.55
2023-04-11T02:53:32.731Z,4.80
2023-04-11T02:58:41.970Z,4.90
2023-04-11T03:01:11.285Z,4.72
2023-04-11T03:03:38.921Z,5.10
2023-04-11T03:06:09.055Z,5.60
2023-04-11T03:08:37.274Z,4.80
2023-04-11T03:11:04.965Z,4.82
2023-04-11T03:13:32.075Z,4.63
2023-04-11T03:15:59.063Z,4.80
2023-04-11T03:18:25.958Z,4.97
2023-04-11T03:20:56.030Z,5.07
2023-04-11T03:23:23.058Z,5.20
2023-04-11T03:25:51.014Z,4.95
2023-04-11T03:28:17.920Z,4.93
2023-04-11T03:30:44.833Z,5.05
2023-04-11T03:33:11.699Z,5.28
2023-04-11T03:35:38.572Z,4.88
2023-04-11T03:38:05.336Z,4.70
2023-04-11T03:40:32.109Z,5.07
2023-04-11T03:43:04.381Z,4.70
2023-04-11T03:45:31.648Z,4.93
2023-04-11T03:47:58.528Z,5.10
2023-04-11T03:50:25.519Z,4.82
2023-04-11T03:52:52.305Z,5.20
2023-04-11T03:55:19.320Z,5.05
2023-04-11T03:57:46.356Z,4.97
2023-04-11T04:00:13.493Z,4.45
2023-04-11T04:02:40.392Z,4.50
2023-04-11T04:05:07.984Z,4.22
2023-04-11T04:07:35.312Z,4.68
2023-04-11T04:10:02.120Z,4.28
2023-04-11T04:12:28.883Z,4.90
2023-04-11T04:14:55.689Z,4.28
2023-04-11T04:17:22.559Z,3.92
2023-04-11T04:19:49.702Z,4.50
2023-04-11T04:22:17.808Z,4.82
2023-04-11T04:24:46.274Z,4.22
2023-04-11T04:27:18.188Z,4.20
2023-04-11T04:29:51.090Z,4.43
2023-04-11T04:32:30.783Z,4.47
2023-04-11T04:34:58.864Z,4.45
2023-04-11T04:37:27.398Z,4.75
2023-04-11T04:39:56.012Z,4.78
2023-04-11T04:42:24.713Z,4.85
2023-04-11T04:44:52.877Z,4.53
2023-04-11T04:47:22.838Z,4.95
2023-04-11T04:49:54.026Z,5.18
2023-04-11T04:52:21.178Z,4.82
2023-04-11T04:54:48.216Z,5.38
2023-04-11T04:57:14.926Z,5.15
2023-04-11T04:59:41.900Z,5.50
2023-04-11T05:02:13.784Z,5.60
2023-04-11T05:04:42.037Z,5.13
2023-04-11T05:07:08.829Z,4.88
2023-04-11T05:09:35.546Z,5.45
2023-04-11T05:12:02.501Z,5.22
2023-04-11T05:14:29.253Z,5.13
2023-04-11T05:16:56.035Z,5.50
2023-04-11T05:19:22.822Z,5.45
2023-04-11T05:21:49.566Z,5.20
2023-04-11T05:24:17.550Z,5.68
2023-04-11T05:26:44.438Z,5.88
2023-04-11T05:29:12.060Z,6.30
2023-04-11T05:31:38.961Z,5.55
2023-04-11T05:34:05.845Z,5.97
2023-04-11T05:36:32.877Z,5.75
2023-04-11T05:38:59.688Z,6.85
2023-04-11T05:41:27.226Z,6.32
2023-04-11T05:43:54.278Z,6.05
2023-04-11T05:46:21.405Z,5.57
2023-04-11T05:48:48.174Z,6.22
2023-04-11T05:51:15.017Z,6.40
2023-04-11T05:53:41.985Z,5.95
2023-04-11T05:56:09.334Z,6.60
2023-04-11T05:58:38.216Z,6.05
2023-04-11T06:01:07.395Z,5.85
2023-04-11T06:03:34.485Z,6.15
2023-04-11T06:06:01.654Z,5.63
2023-04-11T06:08:32.446Z,5.93
2023-04-11T06:10:59.213Z,6.32
2023-04-11T06:13:26.646Z,6.35
2023-04-11T06:15:54.083Z,6.07
2023-04-11T06:18:21.144Z,5.93
2023-04-11T06:20:49.498Z,5.40
2023-04-11T06:23:16.396Z,5.65
2023-04-11T06:25:46.533Z,5.55
2023-04-11T06:28:14.188Z,5.38
2023-04-11T06:30:41.558Z,5.22
2023-04-11T06:33:08.543Z,5.68
2023-04-11T06:35:36.257Z,6.00
2023-04-11T06:38:03.011Z,5.57
2023-04-11T06:40:30.813Z,5.32
2023-04-11T06:43:00.067Z,5.85
2023-04-11T06:45:27.577Z,6.00
2023-04-11T06:47:54.745Z,4.93
2023-04-11T06:50:21.712Z,4.50
2023-04-11T06:52:48.526Z,5.97
2023-04-11T06:55:15.691Z,5.20
2023-04-11T06:57:43.922Z,5.55
2023-04-11T07:00:12.970Z,4.97
2023-04-11T07:02:40.136Z,5.13
2023-04-11T07:05:11.496Z,5.10
2023-04-11T07:07:38.511Z,5.28
2023-04-11T07:10:06.429Z,5.55
2023-04-11T07:12:33.205Z,5.35
2023-04-11T07:15:00.028Z,5.72
2023-04-11T07:17:26.930Z,5.88
2023-04-11T07:19:53.762Z,6.43
2023-04-11T07:22:20.609Z,6.03
2023-04-11T07:24:52.036Z,5.25
2023-04-11T07:27:19.459Z,5.50
2023-04-11T07:29:46.374Z,5.28
2023-04-11T07:32:13.169Z,5.93
2023-04-11T07:34:40.002Z,5.90
2023-04-11T07:37:07.149Z,6.50
2023-04-11T07:39:34.310Z,5.65
2023-04-11T07:42:01.901Z,5.82
2023-04-11T07:44:28.852Z,5.68
2023-04-11T07:46:55.753Z,5.65
2023-04-11T07:49:22.553Z,5.30
2023-04-11T07:51:49.574Z,5.72
2023-04-11T07:54:16.781Z,5.20
2023-04-11T07:56:43.549Z,5.60
2023-04-11T07:59:13.172Z,5.43
2023-04-11T08:01:40.070Z,5.78
2023-04-11T08:04:08.353Z,6.03
2023-04-11T08:06:35.805Z,6.50
2023-04-11T08:09:02.651Z,6.05
2023-04-11T08:11:29.595Z,5.53
2023-04-11T08:13:56.652Z,6.13
2023-04-11T08:16:23.808Z,5.13
2023-04-11T08:18:50.723Z,6.10
2023-04-11T08:21:17.558Z,6.38
2023-04-11T08:23:44.379Z,6.18
2023-04-11T08:26:12.916Z,6.13
2023-04-11T08:28:42.429Z,6.07
2023-04-11T08:31:10.809Z,6.78
2023-04-11T08:33:38.657Z,6.18
2023-04-11T08:36:10.671Z,6.88
2023-04-11T08:38:39.585Z,7.32
2023-04-11T08:41:07.219Z,6.47
2023-04-11T08:43:35.382Z,7.05
2023-04-11T08:46:05.736Z,7.28
2023-04-11T08:48:32.942Z,7.70
2023-04-11T08:50:59.990Z,7.90
2023-04-11T08:53:28.097Z,7.32
2023-04-11T08:55:55.195Z,7.82
2023-04-11T08:58:23.080Z,8.02
2023-04-11T09:00:49.908Z,7.93
2023-04-11T09:03:17.399Z,7.65
2023-04-11T09:05:50.265Z,7.57
2023-04-11T09:08:17.677Z,7.80
2023-04-11T09:10:45.754Z,7.15
2023-04-11T09:13:25.560Z,8.20
2023-04-11T09:16:04.729Z,8.02
2023-04-11T09:18:51.767Z,8.77
2023-04-11T09:21:19.201Z,8.30
2023-04-11T09:23:46.094Z,8.85
2023-04-11T09:26:24.992Z,8.68
2023-04-11T09:28:54.787Z,9.20
2023-04-11T09:31:38.172Z,9.48
2023-04-11T09:34:05.381Z,8.70
2023-04-11T09:36:32.188Z,9.13
2023-04-11T09:38:59.365Z,9.32
2023-04-11T09:41:32.219Z,9.23
2023-04-11T09:43:59.773Z,9.18
2023-04-11T09:46:26.690Z,8.95
2023-04-11T09:48:54.928Z,9.80
2023-04-11T09:51:34.277Z,9.65
2023-04-11T09:54:04.089Z,9.35
2023-04-11T09:56:31.799Z,10.13
2023-04-11T09:59:01.083Z,9.85
2023-04-11T10:01:28.187Z,10.07
2023-04-11T10:03:56.763Z,10.57
2023-04-11T10:06:44.949Z,10.52
2023-04-11T10:09:13.913Z,10.63
2023-04-11T10:11:42.960Z,10.77
2023-04-11T10:14:10.858Z,10.95
2023-04-11T10:17:14.416Z,10.93
2023-04-11T10:19:43.795Z,11.02
2023-04-11T10:22:11.741Z,10.52
2023-04-11T10:24:39.013Z,10.18
2023-04-11T10:27:06.230Z,10.90
2023-04-11T10:29:34.280Z,10.10
2023-04-11T10:32:11.181Z,10.30
2023-04-11T10:34:40.794Z,10.82
2023-04-11T10:37:09.911Z,10.48
2023-04-11T10:39:51.957Z,10.13
2023-04-11T10:45:25.092Z,9.52
2023-04-11T10:47:52.220Z,10.27
2023-04-11T10:50:28.785Z,9.82
2023-04-11T10:52:57.328Z,10.88
2023-04-11T10:55:31.949Z,10.50
2023-04-11T10:58:10.551Z,10.50
2023-04-11T11:00:50.996Z,10.23
2023-04-11T11:03:26.589Z,11.20
2023-04-11T11:11:14.661Z,12.23
2023-04-11T11:13:43.852Z,12.30
2023-04-11T11:16:17.723Z,12.05
2023-04-11T11:18:48.628Z,11.70
2023-04-11T11:21:27.631Z,11.83
2023-04-11T11:23:55.978Z,12.55
2023-04-11T11:26:24.902Z,12.57
2023-04-11T11:28:51.769Z,12.50
2023-04-11T11:31:19.399Z,11.23
2023-04-11T11:33:46.320Z,11.52
2023-04-11T11:36:15.747Z,11.68
2023-04-11T11:38:42.749Z,11.23
2023-04-11T11:41:10.179Z,11.40
2023-04-11T11:43:37.946Z,12.52
2023-04-11T11:46:09.323Z,11.07
2023-04-11T11:48:36.770Z,11.02
2023-04-11T11:51:04.004Z,12.30
2023-04-11T11:53:30.895Z,11.95
2023-04-11T11:55:57.999Z,13.48
2023-04-11T11:58:26.179Z,13.30
2023-04-11T12:00:53.673Z,11.23
2023-04-11T12:03:23.294Z,12.27
2023-04-11T12:05:55.130Z,11.55
2023-04-11T12:10:50.737Z,11.55
2023-04-11T12:13:20.745Z,11.85
2023-04-11T12:15:51.587Z,12.00
2023-04-11T12:18:21.300Z,11.50
2023-04-11T12:20:48.218Z,12.35
2023-04-11T12:23:15.057Z,10.40
2023-04-11T12:25:42.287Z,11.18
2023-04-11T12:28:09.740Z,10.82
2023-04-11T12:30:39.175Z,11.57
2023-04-11T12:33:06.545Z,10.85
2023-04-11T12:35:33.712Z,13.07
2023-04-11T12:38:00.831Z,11.05
2023-04-11T12:40:29.794Z,11.10
2023-04-11T12:42:57.682Z,11.50
2023-04-11T12:45:25.615Z,10.73
2023-04-11T12:47:53.345Z,10.43
2023-04-11T12:50:23.371Z,11.23
2023-04-11T12:52:50.367Z,11.50
2023-04-11T12:55:17.333Z,10.48
2023-04-11T12:57:44.187Z,11.65
2023-04-11T13:00:13.041Z,11.73
2023-04-11T13:02:44.558Z,11.52
2023-04-11T13:05:14.649Z,11.63
2023-04-11T13:07:43.094Z,10.95
2023-04-11T13:10:10.684Z,12.18
2023-04-11T13:12:41.796Z,11.05
2023-04-11T13:15:12.267Z,11.23
2023-04-11T13:17:40.999Z,11.15
2023-04-11T13:20:14.114Z,11.75
2023-04-11T13:22:41.961Z,12.35
2023-04-11T13:25:13.282Z,10.70
2023-04-11T13:27:41.535Z,10.95
2023-04-11T13:30:10.676Z,12.65
2023-04-11T13:32:38.166Z,10.50
2023-04-11T13:35:05.954Z,10.43
2023-04-11T13:37:33.047Z,10.65
2023-04-11T13:40:01.187Z,9.95
2023-04-11T13:42:30.042Z,10.80
2023-04-11T13:44:57.246Z,11.93
2023-04-11T13:47:24.287Z,10.95
2023-04-11T13:49:51.125Z,10.63
2023-04-11T13:52:18.154Z,10.55
2023-04-11T13:54:45.085Z,11.27
2023-04-11T13:57:12.021Z,10.55
2023-04-11T13:59:39.491Z,10.25
2023-04-11T14:02:06.487Z,11.60
2023-04-11T14:07:22.893Z,10.52
2023-04-11T14:09:53.000Z,10.55
2023-04-11T14:15:00.950Z,9.53
2023-04-11T14:17:27.966Z,10.68
2023-04-11T14:19:54.987Z,9.18
2023-04-11T14:22:21.795Z,8.63
2023-04-11T14:24:48.707Z,8.57
2023-04-11T14:27:16.998Z,8.23
2023-04-11T14:29:43.918Z,7.95
2023-04-11T14:32:11.023Z,8.43
2023-04-11T14:34:38.230Z,9.80
2023-04-11T14:37:06.594Z,11.20
2023-04-11T14:39:34.269Z,9.35
2023-04-11T14:42:04.216Z,8.75
2023-04-11T14:44:31.618Z,8.20
2023-04-11T14:46:58.391Z,7.85
2023-04-11T14:49:30.740Z,7.90
2023-04-11T14:52:00.785Z,7.80
2023-04-11T14:54:29.020Z,7.88
2023-04-11T14:56:57.834Z,8.15
2023-04-11T14:59:24.873Z,8.07
2023-04-11T15:01:52.575Z,7.93
2023-04-11T15:04:19.461Z,7.95
2023-04-11T15:06:46.546Z,7.40
2023-04-11T15:09:13.672Z,7.72
2023-04-11T15:11:40.472Z,7.63
2023-04-11T15:14:07.266Z,7.70
2023-04-11T15:16:34.167Z,7.90
2023-04-11T15:19:00.938Z,7.40
2023-04-11T15:21:28.193Z,8.15
2023-04-11T15:23:55.233Z,7.32
2023-04-11T15:26:23.045Z,7.22
2023-04-11T15:28:49.853Z,7.50
2023-04-11T15:31:26.434Z,6.60
2023-04-11T15:33:56.594Z,7.28
2023-04-11T15:36:24.156Z,7.45
2023-04-11T15:38:51.076Z,7.68
2023-04-11T15:41:18.036Z,7.53
2023-04-11T15:43:45.739Z,7.38
2023-04-11T15:46:15.621Z,7.53
2023-04-11T15:48:42.895Z,7.25
2023-04-11T15:51:11.936Z,7.60
2023-04-11T15:53:39.234Z,7.68
2023-04-11T15:56:08.808Z,8.00
2023-04-11T15:58:36.620Z,7.30
2023-04-11T16:01:04.143Z,7.05
2023-04-11T16:03:33.978Z,7.78
2023-04-11T16:06:01.414Z,8.45
2023-04-11T16:11:10.057Z,7.80
2023-04-11T16:13:36.871Z,7.63
2023-04-11T16:16:04.611Z,7.60
2023-04-11T16:18:31.557Z,7.30
2023-04-11T16:21:03.664Z,7.43
2023-04-11T16:23:30.706Z,7.00
2023-04-11T16:25:57.596Z,7.47
2023-04-11T16:28:25.884Z,6.70
2023-04-11T16:30:52.723Z,6.55
2023-04-11T16:33:19.484Z,6.60
2023-04-11T16:35:46.334Z,7.32
2023-04-11T16:38:13.257Z,7.57
2023-04-11T16:40:40.103Z,6.97
2023-04-11T16:43:07.102Z,7.47
2023-04-11T16:45:34.053Z,7.47
2023-04-11T16:48:00.983Z,7.03
2023-04-11T16:50:29.378Z,6.75
2023-04-11T16:52:57.322Z,7.20
2023-04-11T16:55:25.083Z,7.43
2023-04-11T16:57:51.995Z,7.35
2023-04-11T17:00:20.465Z,6.95
2023-04-11T17:02:48.422Z,6.63
2023-04-11T17:05:15.576Z,6.93
2023-04-11T17:07:43.680Z,6.95
2023-04-11T17:12:53.974Z,7.35
2023-04-11T17:15:21.089Z,7.43
2023-04-11T17:17:49.621Z,7.45
2023-04-11T17:20:16.618Z,6.53
2023-04-11T17:22:44.500Z,6.63
2023-04-11T17:25:11.484Z,6.95
2023-04-11T17:27:38.845Z,7.00
2023-04-11T17:30:08.606Z,6.38
2023-04-11T17:32:38.197Z,7.72
2023-04-11T17:35:15.510Z,7.32
2023-04-11T17:37:42.790Z,7.35
2023-04-11T17:40:14.498Z,7.38
2023-04-11T17:45:17.257Z,6.78
2023-04-11T17:47:47.353Z,6.97
2023-04-11T17:50:17.433Z,6.22
2023-04-11T17:55:39.982Z,7.55
2023-04-11T17:58:07.023Z,8.27
2023-04-11T18:00:48.503Z,8.45
2023-04-11T18:03:23.232Z,8.48
2023-04-11T18:05:51.118Z,10.00
2023-04-11T18:08:22.620Z,9.02
2023-04-11T18:11:00.232Z,10.02
2023-04-11T18:13:27.568Z,9.30
2023-04-11T18:15:54.599Z,9.98
2023-04-11T18:18:21.532Z,10.10
2023-04-11T18:20:49.940Z,10.63
2023-04-11T18:25:59.154Z,10.57
2023-04-11T18:28:37.044Z,10.80
2023-04-11T18:31:05.931Z,10.57
2023-04-11T18:33:34.114Z,9.90
2023-04-11T18:36:04.040Z,10.27
2023-04-11T18:38:32.079Z,10.63
2023-04-11T18:41:04.639Z,10.35
2023-04-11T18:43:34.622Z,11.75
2023-04-11T18:46:04.575Z,11.38
2023-04-11T18:48:33.528Z,12.77
2023-04-11T18:51:09.197Z,13.18
2023-04-11T18:56:29.531Z,18.63
2023-04-11T18:59:04.451Z,20.15
2023-04-11T19:01:34.221Z,19.65
2023-04-11T19:04:03.384Z,22.90
2023-04-11T19:06:34.966Z,19.00
2023-04-11T19:09:02.418Z,16.05
2023-04-11T19:12:07.103Z,16.20
2023-04-11T19:17:21.354Z,12.75
2023-04-11T19:19:49.209Z,13.30
2023-04-11T19:22:17.824Z,13.55
2023-04-11T19:24:49.212Z,12.55
2023-04-11T19:27:19.042Z,13.00
2023-04-11T19:29:45.948Z,14.05
2023-04-11T19:32:15.376Z,14.32
2023-04-11T19:34:52.413Z,14.30
2023-04-11T19:37:19.665Z,14.02
2023-04-11T19:45:38.975Z,12.30
2023-04-11T19:48:12.731Z,13.77
2023-04-11T19:50:44.862Z,13.60
2023-04-11T19:53:16.282Z,15.07
2023-04-11T19:55:45.296Z,13.13
2023-04-11T19:58:16.753Z,13.45
2023-04-11T20:14:07.337Z,13.85
2023-04-11T20:21:58.729Z,13.20
2023-04-11T20:24:30.609Z,12.57
2023-04-11T20:29:44.951Z,13.35
2023-04-11T20:32:28.282Z,11.40
2023-04-11T20:40:24.374Z,12.40
2023-04-11T20:42:52.638Z,12.25
2023-04-11T20:45:22.320Z,12.82
2023-04-11T20:47:50.881Z,14.25
2023-04-11T20:53:06.850Z,12.55
2023-04-11T21:01:04.073Z,12.63
2023-04-11T21:03:33.506Z,13.05
2023-04-11T21:06:06.496Z,12.30
2023-04-11T21:11:18.644Z,12.88
2023-04-11T21:13:52.684Z,12.23
2023-04-11T21:16:25.867Z,12.88
2023-04-11T21:18:52.932Z,13.95
2023-04-11T21:24:06.392Z,13.88
2023-04-11T21:26:38.574Z,13.90
2023-04-11T21:29:08.222Z,14.98
2023-04-11T21:31:38.028Z,14.90
2023-04-11T21:34:06.066Z,14.63
2023-04-11T21:36:44.325Z,13.32
2023-04-11T21:39:11.566Z,14.75
2023-04-11T21:41:39.439Z,14.38
2023-04-11T21:44:06.352Z,14.25
2023-04-11T21:46:33.296Z,14.18
2023-04-11T21:49:00.684Z,15.00
2023-04-11T21:51:28.141Z,15.23
2023-04-11T21:53:55.313Z,14.68
2023-04-11T21:56:22.829Z,14.25
2023-04-11T21:58:50.453Z,13.50
2023-04-11T22:01:17.321Z,14.32
2023-04-11T22:03:44.310Z,14.55
2023-04-11T22:06:12.145Z,14.90
2023-04-11T22:08:39.269Z,15.18
2023-04-11T22:11:14.349Z,14.77
2023-04-11T22:13:47.375Z,14.90
2023-04-11T22:16:14.341Z,15.35
2023-04-11T22:18:47.439Z,14.75
2023-04-11T22:21:20.966Z,15.75
2023-04-11T22:23:50.130Z,16.33
2023-04-11T22:26:17.543Z,16.65
2023-04-11T22:28:45.541Z,16.55
2023-04-11T22:31:13.623Z,15.75
2023-04-11T22:33:41.327Z,16.70
2023-04-11T22:36:11.184Z,16.55
2023-04-11T22:38:38.273Z,17.38
2023-04-11T22:41:05.256Z,17.33
2023-04-11T22:43:33.318Z,16.15
2023-04-11T22:46:00.368Z,16.42
2023-04-11T22:48:29.760Z,17.45
2023-04-11T22:50:59.173Z,16.70
2023-04-11T22:53:26.244Z,16.48
2023-04-11T22:55:53.029Z,15.70
2023-04-11T22:58:20.184Z,16.88
2023-04-11T23:00:47.773Z,16.50
2023-04-11T23:03:15.580Z,15.80
2023-04-11T23:05:42.656Z,16.20
2023-04-11T23:08:10.202Z,16.02
2023-04-11T23:10:38.344Z,14.90
2023-04-11T23:13:05.437Z,15.77
2023-04-11T23:15:32.578Z,15.13
2023-04-11T23:17:59.647Z,15.02
2023-04-11T23:20:26.492Z,15.32
2023-04-11T23:22:53.255Z,15.55
2023-04-11T23:25:20.043Z,17.17
2023-04-11T23:27:47.526Z,16.30
2023-04-11T23:30:17.553Z,17.17
2023-04-11T23:32:44.449Z,16.55
2023-04-11T23:35:11.806Z,17.90
2023-04-11T23:37:38.710Z,17.25
2023-04-11T23:40:09.994Z,18.92
2023-04-11T23:42:38.296Z,17.27
2023-04-11T23:45:06.691Z,17.45
2023-04-11T23:47:34.375Z,16.88
2023-04-11T23:50:02.758Z,16.77
2023-04-11T23:52:30.434Z,16.65
2023-04-11T23:54:58.445Z,16.42
2023-04-11T23:57:25.293Z,17.33
2023-04-11T23:59:52.431Z,15.93
